sensor_id;sensor_type;location;lat;lon;timestamp;P1;durP1;ratioP1;P2;durP2;ratioP2
13795;SDS011;40911;51.552;9.874;2023-07-16T00:02:03;5.75;;;3.08;;
13795;SDS011;40911;51.552;9.874;2023-07-16T00:04:26;4.82;;;3.33;;
13795;SDS011;40911;51.552;9.874;2023-07-16T00:06:48;4.50;;;3.47;;
13795;SDS011;40911;51.552;9.874;2023-07-16T00:09:11;4.28;;;3.25;;
13795;SDS011;40911;51.552;9.874;2023-07-16T00:11:37;4.30;;;2.95;;
13795;SDS011;40911;51.552;9.874;2023-07-16T00:13:59;7.28;;;3.22;;
13795;SDS011;40911;51.552;9.874;2023-07-16T00:16:22;4.07;;;2.90;;
13795;SDS011;40911;51.552;9.874;2023-07-16T00:18:44;6.28;;;3.20;;
13795;SDS011;40911;51.552;9.874;2023-07-16T00:21:06;5.60;;;3.13;;
13795;SDS011;40911;51.552;9.874;2023-07-16T00:23:28;4.03;;;2.83;;
13795;SDS011;40911;51.552;9.874;2023-07-16T00:25:51;4.30;;;2.67;;
13795;SDS011;40911;51.552;9.874;2023-07-16T00:28:13;3.92;;;2.50;;
13795;SDS011;40911;51.552;9.874;2023-07-16T00:30:35;5.28;;;2.70;;
13795;SDS011;40911;51.552;9.874;2023-07-16T00:32:57;6.35;;;2.90;;
13795;SDS011;40911;51.552;9.874;2023-07-16T00:35:19;5.53;;;3.15;;
13795;SDS011;40911;51.552;9.874;2023-07-16T00:37:41;6.55;;;2.80;;
13795;SDS011;40911;51.552;9.874;2023-07-16T00:40:03;3.55;;;2.45;;
13795;SDS011;40911;51.552;9.874;2023-07-16T00:42:27;5.45;;;2.35;;
13795;SDS011;40911;51.552;9.874;2023-07-16T00:44:49;3.65;;;2.53;;
13795;SDS011;40911;51.552;9.874;2023-07-16T00:47:11;3.88;;;2.60;;
13795;SDS011;40911;51.552;9.874;2023-07-16T00:49:33;3.28;;;2.50;;
13795;SDS011;40911;51.552;9.874;2023-07-16T00:51:55;3.80;;;2.25;;
13795;SDS011;40911;51.552;9.874;2023-07-16T00:54:19;6.10;;;2.60;;
13795;SDS011;40911;51.552;9.874;2023-07-16T00:56:42;3.80;;;2.35;;
13795;SDS011;40911;51.552;9.874;2023-07-16T00:59:06;4.95;;;2.30;;
13795;SDS011;40911;51.552;9.874;2023-07-16T01:01:29;3.72;;;2.33;;
13795;SDS011;40911;51.552;9.874;2023-07-16T01:03:50;3.55;;;2.60;;
13795;SDS011;40911;51.552;9.874;2023-07-16T01:06:14;4.35;;;2.30;;
13795;SDS011;40911;51.552;9.874;2023-07-16T01:08:45;2.78;;;2.10;;
13795;SDS011;40911;51.552;9.874;2023-07-16T01:11:09;3.80;;;2.10;;
13795;SDS011;40911;51.552;9.874;2023-07-16T01:13:31;5.85;;;2.20;;
13795;SDS011;40911;51.552;9.874;2023-07-16T01:15:55;4.63;;;2.05;;
13795;SDS011;40911;51.552;9.874;2023-07-16T01:18:17;4.28;;;2.40;;
13795;SDS011;40911;51.552;9.874;2023-07-16T01:20:39;4.20;;;2.10;;
13795;SDS011;40911;51.552;9.874;2023-07-16T01:23:08;5.47;;;2.40;;
13795;SDS011;40911;51.552;9.874;2023-07-16T01:25:56;4.07;;;2.28;;
13795;SDS011;40911;51.552;9.874;2023-07-16T01:28:34;3.95;;;2.10;;
13795;SDS011;40911;51.552;9.874;2023-07-16T01:31:07;2.63;;;2.10;;
13795;SDS011;40911;51.552;9.874;2023-07-16T01:33:32;2.70;;;2.38;;
13795;SDS011;40911;51.552;9.874;2023-07-16T01:35:54;3.35;;;2.42;;
13795;SDS011;40911;51.552;9.874;2023-07-16T01:38:18;2.75;;;1.90;;
13795;SDS011;40911;51.552;9.874;2023-07-16T01:40:41;3.53;;;2.38;;
13795;SDS011;40911;51.552;9.874;2023-07-16T01:43:03;2.30;;;2.10;;
13795;SDS011;40911;51.552;9.874;2023-07-16T01:45:25;3.90;;;2.13;;
13795;SDS011;40911;51.552;9.874;2023-07-16T01:47:50;3.50;;;2.30;;
13795;SDS011;40911;51.552;9.874;2023-07-16T01:50:29;4.60;;;2.40;;
13795;SDS011;40911;51.552;9.874;2023-07-16T01:52:51;5.00;;;2.42;;
13795;SDS011;40911;51.552;9.874;2023-07-16T01:55:12;4.25;;;2.45;;
13795;SDS011;40911;51.552;9.874;2023-07-16T01:57:34;4.03;;;2.88;;
13795;SDS011;40911;51.552;9.874;2023-07-16T01:59:55;2.90;;;2.10;;
13795;SDS011;40911;51.552;9.874;2023-07-16T02:02:17;6.65;;;2.65;;
13795;SDS011;40911;51.552;9.874;2023-07-16T02:04:41;4.07;;;1.90;;
13795;SDS011;40911;51.552;9.874;2023-07-16T02:07:03;3.40;;;2.47;;
13795;SDS011;40911;51.552;9.874;2023-07-16T02:09:26;2.92;;;2.33;;
13795;SDS011;40911;51.552;9.874;2023-07-16T02:11:48;4.78;;;2.70;;
13795;SDS011;40911;51.552;9.874;2023-07-16T02:14:10;3.90;;;2.20;;
13795;SDS011;40911;51.552;9.874;2023-07-16T02:16:33;4.05;;;2.10;;
13795;SDS011;40911;51.552;9.874;2023-07-16T02:18:55;3.88;;;2.10;;
13795;SDS011;40911;51.552;9.874;2023-07-16T02:21:18;4.43;;;2.75;;
13795;SDS011;40911;51.552;9.874;2023-07-16T02:23:40;4.05;;;2.47;;
13795;SDS011;40911;51.552;9.874;2023-07-16T02:26:02;2.67;;;2.47;;
13795;SDS011;40911;51.552;9.874;2023-07-16T02:28:24;4.38;;;2.50;;
13795;SDS011;40911;51.552;9.874;2023-07-16T02:30:45;5.30;;;2.60;;
13795;SDS011;40911;51.552;9.874;2023-07-16T02:33:07;5.70;;;2.50;;
13795;SDS011;40911;51.552;9.874;2023-07-16T02:35:29;4.55;;;2.90;;
13795;SDS011;40911;51.552;9.874;2023-07-16T02:37:52;3.33;;;2.40;;
13795;SDS011;40911;51.552;9.874;2023-07-16T02:40:15;5.15;;;2.70;;
13795;SDS011;40911;51.552;9.874;2023-07-16T02:42:37;2.50;;;2.15;;
13795;SDS011;40911;51.552;9.874;2023-07-16T02:44:58;3.13;;;2.17;;
13795;SDS011;40911;51.552;9.874;2023-07-16T02:47:20;4.60;;;2.60;;
13795;SDS011;40911;51.552;9.874;2023-07-16T02:49:42;4.00;;;2.38;;
13795;SDS011;40911;51.552;9.874;2023-07-16T02:52:04;3.80;;;2.50;;
13795;SDS011;40911;51.552;9.874;2023-07-16T02:54:28;4.18;;;2.45;;
13795;SDS011;40911;51.552;9.874;2023-07-16T02:56:49;3.58;;;2.42;;
13795;SDS011;40911;51.552;9.874;2023-07-16T02:59:11;3.08;;;2.40;;
13795;SDS011;40911;51.552;9.874;2023-07-16T03:01:33;5.70;;;2.70;;
13795;SDS011;40911;51.552;9.874;2023-07-16T03:03:55;3.05;;;2.58;;
13795;SDS011;40911;51.552;9.874;2023-07-16T03:06:17;6.40;;;2.72;;
13795;SDS011;40911;51.552;9.874;2023-07-16T03:08:39;4.18;;;2.65;;
13795;SDS011;40911;51.552;9.874;2023-07-16T03:11:02;4.95;;;2.50;;
13795;SDS011;40911;51.552;9.874;2023-07-16T03:13:24;7.30;;;2.47;;
13795;SDS011;40911;51.552;9.874;2023-07-16T03:15:46;5.63;;;2.85;;
13795;SDS011;40911;51.552;9.874;2023-07-16T03:18:07;5.50;;;2.65;;
13795;SDS011;40911;51.552;9.874;2023-07-16T03:20:30;4.30;;;2.70;;
13795;SDS011;40911;51.552;9.874;2023-07-16T03:22:53;5.15;;;2.70;;
13795;SDS011;40911;51.552;9.874;2023-07-16T03:25:18;7.93;;;2.33;;
13795;SDS011;40911;51.552;9.874;2023-07-16T03:27:44;5.78;;;2.42;;
13795;SDS011;40911;51.552;9.874;2023-07-16T03:30:06;4.35;;;2.20;;
13795;SDS011;40911;51.552;9.874;2023-07-16T03:32:29;3.45;;;2.22;;
13795;SDS011;40911;51.552;9.874;2023-07-16T23:52:35;7.00;;;3.90;;
13795;SDS011;40911;51.552;9.874;2023-07-16T23:54:57;7.47;;;4.65;;
13795;SDS011;40911;51.552;9.874;2023-07-16T23:59:40;9.23;;;4.60;;
